Time;durP1;ratioP1;P1;durP2;ratioP2;P2;SDS_P1;SDS_P2;PMS_P1;PMS_P2;Temp;Humidity;BMP_temperature;BMP_pressure;BME280_temperature;BME280_humidity;BME280_pressure;Samples;Min_cycle;Max_cycle;Signal;HPM_P1;HPM_P2
2022/08/16 00:02:27;;;;;;;9.78;4.97;;;;;;;26.33;44.33;99861.75;1812199;79;21257;-58
2022/08/16 00:05:33;;;;;;;11.10;5.30;;;;;;;26.34;44.30;99874.64;1812359;78;21217;-58
2022/08/16 00:08:41;;;;;;;12.20;6.20;;;;;;;26.32;44.25;99869.91;1812221;78;21190;-57
2022/08/16 00:11:52;;;;;;;8.98;5.72;;;;;;;26.29;44.21;99877.51;1812180;79;21189;-58
2022/08/16 00:14:58;;;;;;;8.80;5.42;;;;;;;26.26;44.19;99885.08;1812844;78;21185;-58
2022/08/16 00:17:59;;;;;;;11.28;5.85;;;;;;;26.23;44.17;99891.27;1793156;78;21233;-57
2022/08/16 00:21:00;;;;;;;14.10;5.42;;;;;;;26.17;44.18;99882.62;1818206;78;21324;-57
2022/08/16 00:24:08;;;;;;;11.55;5.62;;;;;;;26.11;44.16;99890.80;1834942;78;21245;-59
2022/08/16 00:27:16;;;;;;;13.00;6.05;;;;;;;26.08;44.15;99896.44;1833954;78;21248;-57
2022/08/16 00:30:22;;;;;;;13.43;5.75;;;;;;;26.04;44.15;99887.45;1834890;78;21207;-58
2022/08/16 00:33:28;;;;;;;10.70;5.58;;;;;;;26.01;44.17;99882.42;1808611;78;21186;-57
2022/08/16 00:36:36;;;;;;;11.25;5.42;;;;;;;25.96;44.21;99873.45;1834937;78;21331;-57
2022/08/16 00:39:42;;;;;;;11.65;5.67;;;;;;;25.92;44.21;99871.52;1834910;78;21221;-58
2022/08/16 00:42:51;;;;;;;9.00;6.00;;;;;;;25.87;44.24;99860.31;1835545;78;21221;-58
2022/08/16 00:46:31;;;;;;;15.35;5.72;;;;;;;25.83;44.26;99857.82;1835570;78;21186;-57
2022/08/16 00:49:39;;;;;;;13.72;5.65;;;;;;;25.79;44.29;99859.50;1833984;78;21217;-58
2022/08/16 00:52:48;;;;;;;10.43;5.58;;;;;;;25.74;44.34;99870.74;1835439;78;21304;-58
2022/08/16 00:55:56;;;;;;;11.40;6.40;;;;;;;25.71;44.37;99867.11;1835260;78;21190;-57
2022/08/16 00:59:24;;;;;;;14.03;5.67;;;;;;;25.69;44.39;99871.61;1835283;78;21217;-58
2022/08/16 01:02:32;;;;;;;10.30;5.87;;;;;;;25.65;44.46;99875.28;1634413;86;21336;-58
2022/08/16 01:05:40;;;;;;;17.25;6.20;;;;;;;25.61;44.59;99884.00;1665934;86;21207;-58
2022/08/16 01:08:48;;;;;;;9.00;5.62;;;;;;;25.54;44.64;99881.50;1654507;86;21213;-57
2022/08/16 01:11:56;;;;;;;13.55;5.35;;;;;;;25.45;44.72;99880.38;1677103;85;21196;-56
2022/08/16 01:15:05;;;;;;;14.43;6.20;;;;;;;25.35;44.83;99886.59;1677957;85;21231;-58
2022/08/16 01:18:11;;;;;;;11.28;6.20;;;;;;;25.26;44.93;99885.47;1676930;85;21203;-59
2022/08/16 01:21:42;;;;;;;12.30;6.60;;;;;;;25.13;45.07;99886.89;1676638;85;21267;-57
2022/08/16 01:24:58;;;;;;;10.72;5.97;;;;;;;25.00;45.23;99888.31;1677096;85;21299;-57
2022/08/16 01:28:08;;;;;;;11.68;6.62;;;;;;;24.89;45.39;99897.00;1677053;85;21207;-57
2022/08/16 01:31:15;;;;;;;10.85;6.22;;;;;;;24.78;45.61;99897.55;1677785;84;21188;-58
2022/08/16 01:34:24;;;;;;;11.30;6.50;;;;;;;24.69;45.71;99896.98;1677170;85;21219;-59
2022/08/16 01:37:35;;;;;;;8.68;5.80;;;;;;;24.59;45.86;99896.39;1678046;85;21271;-57
2022/08/16 01:40:41;;;;;;;13.10;6.30;;;;;;;24.54;46.05;99895.56;1662722;85;21369;-58
2022/08/16 01:43:49;;;;;;;13.72;6.67;;;;;;;24.51;46.24;99896.12;1677048;85;21377;-58
2022/08/16 01:46:56;;;;;;;10.58;5.80;;;;;;;24.48;46.42;99905.08;1677354;84;21204;-59
2022/08/16 01:50:03;;;;;;;15.58;6.20;;;;;;;24.44;46.54;99908.98;1676902;85;21262;-59
2022/08/16 01:53:04;;;;;;;12.58;6.15;;;;;;;24.42;46.62;99909.81;1676922;85;21302;-59
2022/08/16 01:56:21;;;;;;;11.12;5.42;;;;;;;24.39;46.76;99916.52;1679010;85;21223;-59
2022/08/16 01:59:27;;;;;;;12.13;5.90;;;;;;;24.34;46.86;99920.14;1679738;85;21215;-58
2022/08/16 02:02:36;;;;;;;7.87;5.60;;;;;;;24.28;47.00;99924.61;1702564;83;21226;-57
2022/08/16 02:05:43;;;;;;;12.28;6.22;;;;;;;24.24;47.15;99938.88;1708823;84;21245;-59
2022/08/16 02:08:53;;;;;;;13.15;6.20;;;;;;;24.19;47.29;99934.66;1708918;84;21266;-59
2022/08/16 02:12:05;;;;;;;10.55;6.28;;;;;;;24.15;47.38;99929.35;1708950;84;21258;-59
2022/08/16 02:15:12;;;;;;;;;;;;;;;24.11;47.51;99929.05;1693459;83;21573;-57
2022/08/16 02:18:20;;;;;;;12.88;5.87;;;;;;;24.08;47.64;99942.19;1708919;84;20236;-59
2022/08/16 02:21:25;;;;;;;10.23;5.30;;;;;;;24.05;47.78;99948.34;1708863;84;21265;-58
2022/08/16 02:24:31;;;;;;;14.23;5.53;;;;;;;24.06;47.88;99940.22;1708806;84;21266;-58
2022/08/16 02:27:39;;;;;;;11.60;5.90;;;;;;;24.06;48.02;99920.64;1708877;84;21293;-58
2022/08/16 02:30:47;;;;;;;12.15;5.37;;;;;;;24.08;48.11;99924.56;1708881;84;21182;-58
2022/08/16 02:33:54;;;;;;;10.28;5.55;;;;;;;24.08;48.22;99908.63;1709026;84;21222;-58
2022/08/16 02:37:03;;;;;;;13.88;5.72;;;;;;;24.08;48.28;99911.42;1708894;84;21510;-58
2022/08/16 02:40:10;;;;;;;22.60;6.05;;;;;;;24.09;48.36;99908.05;1708925;84;21198;-58
2022/08/16 02:43:15;;;;;;;11.85;5.67;;;;;;;24.09;48.46;99908.90;1708936;84;21206;-58
2022/08/16 02:46:26;;;;;;;11.28;6.28;;;;;;;24.08;48.57;99910.57;1708878;84;21667;-59
2022/08/16 02:49:35;;;;;;;12.50;6.22;;;;;;;24.08;48.64;99910.03;1709016;84;21368;-57
2022/08/16 02:52:44;;;;;;;12.35;5.83;;;;;;;24.07;48.69;99906.92;1709050;84;21317;-57
2022/08/16 02:55:51;;;;;;;12.05;6.15;;;;;;;24.05;48.77;99901.34;1708915;84;21222;-57
2022/08/16 02:58:59;;;;;;;12.13;5.55;;;;;;;24.03;48.88;99898.81;1708849;84;21189;-56
2022/08/16 03:02:06;;;;;;;10.32;6.03;;;;;;;24.02;48.97;99901.89;1708853;82;21247;-58
2022/08/16 03:05:15;;;;;;;9.90;6.05;;;;;;;24.00;49.05;99904.97;1675599;85;21243;-58
2022/08/16 03:08:22;;;;;;;14.98;6.37;;;;;;;23.98;49.15;99901.59;1701563;84;21207;-57
2022/08/16 03:11:30;;;;;;;11.73;6.35;;;;;;;23.96;49.24;99899.59;1694572;84;21227;-57
2022/08/16 03:14:37;;;;;;;11.48;7.08;;;;;;;23.94;49.33;99897.65;1694308;84;21215;-58
2022/08/16 03:17:45;;;;;;;13.32;6.78;;;;;;;23.92;49.44;99907.41;1694321;84;21286;-59
2022/08/16 03:20:55;;;;;;;12.03;6.87;;;;;;;23.90;49.58;99910.48;1694272;84;21787;-58
2022/08/16 03:24:03;;;;;;;9.65;6.75;;;;;;;23.90;49.70;99916.62;1708932;84;21186;-57
2022/08/16 03:27:10;;;;;;;10.05;6.62;;;;;;;23.89;49.79;99928.38;1699901;84;21274;-57
2022/08/16 03:30:27;;;;;;;16.23;7.40;;;;;;;23.87;49.94;99943.73;1699644;84;21223;-58
2022/08/16 03:33:33;;;;;;;12.10;7.33;;;;;;;23.81;50.07;99944.28;1698079;83;21282;-57
2022/08/16 03:36:42;;;;;;;16.20;7.10;;;;;;;23.75;50.21;99966.34;1699376;83;21256;-59
2022/08/16 03:39:49;;;;;;;10.15;6.78;;;;;;;23.69;50.35;99967.98;1681104;85;21301;-57
2022/08/16 03:42:57;;;;;;;15.68;7.00;;;;;;;23.66;50.48;99974.12;1704661;84;21267;-58
2022/08/16 03:46:04;;;;;;;12.43;6.80;;;;;;;23.59;50.61;99970.98;1714467;83;21795;-58
2022/08/16 03:49:13;;;;;;;12.95;7.05;;;;;;;23.56;50.76;99966.52;1687803;84;21282;-58
2022/08/16 03:52:19;;;;;;;12.47;7.22;;;;;;;23.53;50.93;99987.44;1682515;85;21212;-58
2022/08/16 03:55:26;;;;;;;10.88;7.55;;;;;;;23.53;51.06;99999.20;1687751;85;21631;-58
2022/08/16 03:58:36;;;;;;;14.33;8.75;;;;;;;23.50;51.22;100004.75;1647797;87;21251;-57
2022/08/16 04:01:42;;;;;;;15.00;8.08;;;;;;;23.49;51.34;100000.83;1672819;86;21253;-58
2022/08/16 04:04:50;;;;;;;14.30;7.00;;;;;;;23.48;51.45;99999.16;1683176;85;21245;-58
2022/08/16 04:07:59;;;;;;;15.32;7.60;;;;;;;23.47;51.58;99991.87;1671817;85;21834;-58
2022/08/16 04:11:06;;;;;;;12.63;6.62;;;;;;;23.47;51.73;99986.27;1666891;85;21399;-58
2022/08/16 04:14:16;;;;;;;13.18;7.03;;;;;;;23.46;51.85;99976.22;1681265;85;21210;-58
2022/08/16 04:17:25;;;;;;;19.67;7.22;;;;;;;23.45;51.93;99982.36;1652964;86;21236;-58
2022/08/16 04:20:34;;;;;;;11.63;6.53;;;;;;;23.44;52.03;99979.83;1674985;85;21274;-57
2022/08/16 04:23:42;;;;;;;15.45;6.80;;;;;;;23.41;52.12;99974.24;1671157;86;21216;-58
2022/08/16 04:26:51;;;;;;;10.45;5.62;;;;;;;23.43;52.24;99981.81;1682890;84;21187;-59
2022/08/16 04:29:57;;;;;;;7.75;5.37;;;;;;;23.45;52.33;99978.74;1694243;84;21257;-60
2022/08/16 04:33:06;;;;;;;10.00;5.08;;;;;;;23.48;52.40;99992.99;1699049;84;21779;-59
2022/08/16 04:36:13;;;;;;;7.42;4.95;;;;;;;23.50;52.48;99994.97;1699539;84;21246;-59
2022/08/16 04:39:20;;;;;;;12.88;4.87;;;;;;;23.53;52.53;99993.61;1696460;84;21231;-59
2022/08/16 04:42:29;;;;;;;9.98;4.47;;;;;;;23.55;52.53;100003.94;1696024;83;21327;-59
2022/08/16 04:45:39;;;;;;;8.03;4.60;;;;;;;23.56;52.50;100007.86;1729159;82;21229;-59
2022/08/16 04:48:46;;;;;;;11.48;4.80;;;;;;;23.60;52.53;100019.34;1700981;82;21385;-59
2022/08/16 04:51:54;;;;;;;9.95;4.78;;;;;;;23.62;52.55;100032.51;1687396;84;21745;-59
2022/08/16 04:55:02;;;;;;;10.70;4.78;;;;;;;23.63;52.60;100036.43;1684364;84;21382;-58
2022/08/16 04:58:10;;;;;;;12.00;4.50;;;;;;;23.65;52.64;100043.14;1701365;84;21228;-58
2022/08/16 05:01:18;;;;;;;13.55;4.22;;;;;;;23.63;52.65;100053.20;1682607;84;21244;-57
2022/08/16 05:04:26;;;;;;;9.00;5.10;;;;;;;23.61;52.70;100060.16;1697168;82;21820;-56
2022/08/16 05:07:32;;;;;;;7.95;4.62;;;;;;;23.54;52.71;100069.34;1707715;84;21285;-56
2022/08/16 05:10:40;;;;;;;9.75;4.85;;;;;;;23.49;52.82;100077.67;1702808;82;21356;-54
2022/08/16 05:13:49;;;;;;;12.90;4.95;;;;;;;23.43;52.85;100082.94;1688454;85;21216;-56
2022/08/16 05:16:59;;;;;;;10.38;5.20;;;;;;;23.37;52.86;100096.59;1682426;84;21780;-55
2022/08/16 05:20:08;;;;;;;8.78;4.78;;;;;;;23.30;52.91;100098.20;1687518;82;21252;-56
2022/08/16 05:23:17;;;;;;;10.95;4.72;;;;;;;23.24;53.03;100106.22;1688911;84;21293;-57
2022/08/16 05:26:36;;;;;;;12.23;4.75;;;;;;;23.20;53.15;100116.77;1741002;82;22217;-55
2022/08/16 05:29:53;;;;;;;11.25;5.33;;;;;;;23.14;53.31;100129.00;1736180;82;21275;-56
2022/08/16 05:32:59;;;;;;;7.62;5.20;;;;;;;23.07;53.42;100140.95;1729864;82;21239;-55
2022/08/16 05:36:09;;;;;;;11.10;4.70;;;;;;;22.99;53.50;100140.02;1705592;84;21415;-58
2022/08/16 05:39:16;;;;;;;8.95;4.87;;;;;;;22.95;53.61;100151.41;1701284;82;22074;-58
2022/08/16 05:42:22;;;;;;;10.23;5.20;;;;;;;22.91;53.81;100148.86;1709218;83;21230;-58
2022/08/16 05:45:31;;;;;;;11.33;5.37;;;;;;;22.87;53.93;100147.14;1708949;82;22078;-57
2022/08/16 05:48:40;;;;;;;14.40;5.60;;;;;;;22.86;54.05;100162.22;1705818;83;21810;-57
2022/08/16 05:51:49;;;;;;;11.63;6.40;;;;;;;22.84;54.23;100157.98;1683651;84;21265;-56
2022/08/16 05:54:55;;;;;;;15.90;6.55;;;;;;;22.79;54.39;100140.62;1711567;83;21234;-56
2022/08/16 05:58:01;;;;;;;14.13;7.90;;;;;;;22.74;54.57;100141.95;1694181;82;21227;-57
2022/08/16 06:01:09;;;;;;;11.38;7.67;;;;;;;22.72;54.72;100139.14;1696729;84;21243;-57
2022/08/16 06:04:18;;;;;;;12.43;7.53;;;;;;;22.71;54.85;100143.02;1693196;84;21238;-57
2022/08/16 06:07:25;;;;;;;12.60;7.90;;;;;;;22.69;54.94;100146.08;1675934;83;21326;-57
2022/08/16 06:10:35;;;;;;;12.33;7.85;;;;;;;22.70;55.02;100144.13;1676707;84;21258;-56
2022/08/16 06:13:46;;;;;;;15.70;7.97;;;;;;;22.69;55.24;100150.26;1676609;85;21950;-57
2022/08/16 06:16:58;;;;;;;10.40;7.58;;;;;;;22.70;55.42;100151.97;1684303;82;21340;-57
2022/08/16 06:20:06;;;;;;;13.03;8.40;;;;;;;22.72;55.54;100154.50;1702123;84;21234;-57
2022/08/16 06:23:15;;;;;;;12.00;8.00;;;;;;;22.67;55.56;100146.91;1700271;82;21191;-58
2022/08/16 06:26:26;;;;;;;15.60;8.05;;;;;;;22.68;55.79;100154.70;1689878;83;21234;-58
2022/08/16 06:29:33;;;;;;;12.98;9.00;;;;;;;22.72;55.92;100158.69;1697453;83;21661;-58
2022/08/16 06:32:39;;;;;;;19.65;9.88;;;;;;;22.71;55.99;100157.83;1689557;82;21187;-59
2022/08/16 06:35:46;;;;;;;14.10;8.75;;;;;;;22.75;56.21;100161.80;1692132;83;21199;-58
2022/08/16 06:38:53;;;;;;;12.40;8.78;;;;;;;22.82;56.39;100160.18;1701376;83;21744;-58
2022/08/16 06:42:12;;;;;;;11.93;8.60;;;;;;;22.81;56.35;100166.34;1702481;83;21791;-59
2022/08/16 06:45:22;;;;;;;14.93;8.85;;;;;;;22.81;56.54;100164.09;1703556;84;21222;-59
2022/08/16 06:48:30;;;;;;;14.47;8.68;;;;;;;22.84;56.75;100164.96;1702775;84;21225;-56
2022/08/16 06:51:38;;;;;;;13.00;7.70;;;;;;;22.91;56.91;100162.83;1675901;85;21278;-58
2022/08/16 06:54:48;;;;;;;12.07;7.35;;;;;;;22.98;57.01;100168.48;1689139;85;21649;-58
2022/08/16 06:57:54;;;;;;;15.70;7.67;;;;;;;23.08;57.12;100166.36;1704043;84;21231;-58
2022/08/16 07:01:03;;;;;;;22.85;15.20;;;;;;;23.20;57.19;100169.84;1704713;83;21243;-57
2022/08/16 07:04:12;;;;;;;11.60;7.00;;;;;;;23.28;57.19;100174.98;1705137;83;21230;-58
2022/08/16 07:07:20;;;;;;;12.80;6.87;;;;;;;23.36;57.27;100166.13;1703954;82;21871;-57
2022/08/16 07:10:29;;;;;;;10.38;7.50;;;;;;;23.46;57.33;100153.13;1627760;87;21233;-56
2022/08/16 07:13:37;;;;;;;12.60;6.70;;;;;;;23.56;57.42;100143.98;1692005;84;21340;-57
2022/08/16 07:16:45;;;;;;;12.30;6.17;;;;;;;23.69;57.50;100143.52;1697050;84;21271;-57
2022/08/16 07:19:54;;;;;;;17.02;7.90;;;;;;;23.77;57.44;100138.83;1685574;84;21734;-58
2022/08/16 07:23:05;;;;;;;22.40;10.53;;;;;;;23.87;57.52;100136.13;1635942;87;21221;-57
2022/08/16 07:26:16;;;;;;;14.93;7.58;;;;;;;24.00;57.61;100133.44;1677138;83;22050;-55
2022/08/16 07:29:24;;;;;;;10.95;6.40;;;;;;;24.09;57.63;100117.28;1689236;84;21215;-54
2022/08/16 07:32:32;;;;;;;8.05;4.80;;;;;;;24.20;57.72;100111.18;1638451;87;21217;-53
2022/08/16 07:35:41;;;;;;;14.13;4.95;;;;;;;24.39;57.82;100103.46;1636215;86;21763;-53
2022/08/16 07:38:42;;;;;;;15.53;5.25;;;;;;;24.58;57.65;100097.67;1669262;85;21266;-54
2022/08/16 07:41:36;;;;;;;10.32;4.47;;;;;;;24.77;57.63;100091.89;1668528;86;21235;-55
2022/08/16 07:44:49;;;;;;;7.53;3.90;;;;;;;24.92;57.46;100079.34;1684774;84;21203;-55
2022/08/16 07:47:57;;;;;;;8.63;5.03;;;;;;;25.11;57.38;100089.45;1678996;83;21200;-57
2022/08/16 07:51:08;;;;;;;10.98;4.35;;;;;;;25.29;57.24;100099.28;1696167;84;21235;-54
2022/08/16 07:54:17;;;;;;;6.65;4.53;;;;;;;25.43;57.12;100110.25;1696042;84;21257;-55
2022/08/16 07:57:28;;;;;;;13.75;5.00;;;;;;;25.57;57.04;100105.22;1679531;84;21235;-55
2022/08/16 08:00:39;;;;;;;10.93;4.17;;;;;;;25.66;56.85;100107.73;1694649;84;21244;-56
2022/08/16 08:03:51;;;;;;;8.83;4.22;;;;;;;25.76;56.82;100101.28;1648391;85;21801;-57
2022/08/16 08:07:02;;;;;;;13.03;5.08;;;;;;;25.88;56.74;100087.78;1683706;84;21267;-56
2022/08/16 08:10:09;;;;;;;11.33;4.35;;;;;;;26.03;56.67;100082.19;1706797;82;21779;-58
2022/08/16 08:13:17;;;;;;;10.08;4.65;;;;;;;26.12;56.44;100074.87;1711593;83;21772;-58
2022/08/16 08:16:24;;;;;;;14.53;4.30;;;;;;;26.18;56.32;100077.92;1711704;83;21214;-55
2022/08/16 08:19:32;;;;;;;8.15;4.28;;;;;;;26.27;56.17;100070.03;1712642;83;21211;-58
2022/08/16 08:22:39;;;;;;;9.48;4.92;;;;;;;26.37;56.16;100073.38;1717226;83;21231;-57
2022/08/16 08:25:49;;;;;;;16.25;4.28;;;;;;;26.58;56.15;100080.59;1682749;85;21636;-51
2022/08/16 08:28:56;;;;;;;18.92;4.22;;;;;;;26.76;56.04;100074.92;1711043;82;21247;-57
2022/08/16 08:32:06;;;;;;;9.35;3.90;;;;;;;26.90;55.85;100072.59;1698880;84;21855;-55
2022/08/16 08:35:15;;;;;;;12.95;3.77;;;;;;;26.97;55.61;100072.28;1736479;82;22113;-59
2022/08/16 08:38:26;;;;;;;7.83;3.15;;;;;;;26.94;55.38;100056.00;1731033;82;21215;-55
2022/08/16 08:41:41;;;;;;;9.00;3.58;;;;;;;26.95;55.27;100060.48;1732672;82;21840;-56
2022/08/16 08:44:49;;;;;;;8.88;3.45;;;;;;;26.96;55.23;100064.95;1683567;84;21260;-57
2022/08/16 08:47:58;;;;;;;9.25;3.02;;;;;;;26.98;55.16;100076.76;1728077;82;21709;-56
2022/08/16 08:51:04;;;;;;;10.78;3.30;;;;;;;26.96;55.01;100080.41;1721476;82;21632;-58
2022/08/16 08:54:14;;;;;;;9.78;3.10;;;;;;;26.95;54.90;100079.59;1708205;82;21191;-57
2022/08/16 08:57:23;;;;;;;12.35;2.90;;;;;;;26.96;54.77;100077.05;1701988;83;21211;-57
2022/08/16 09:00:45;;;;;;;8.08;2.80;;;;;;;26.88;54.62;100073.44;1681052;84;21232;-57
2022/08/16 09:03:54;;;;;;;10.50;3.27;;;;;;;26.85;54.49;100067.00;1670005;84;21236;-60
2022/08/16 09:07:07;;;;;;;6.58;2.83;;;;;;;26.92;54.50;100070.34;1714439;82;21200;-58
2022/08/16 09:10:16;;;;;;;6.90;2.60;;;;;;;27.07;54.41;100089.91;1692263;82;21271;-59
2022/08/16 09:13:24;;;;;;;11.78;3.55;;;;;;;27.17;54.31;100088.44;1686745;83;21206;-57
2022/08/16 09:16:31;;;;;;;9.05;3.12;;;;;;;27.23;54.16;100099.06;1703727;84;21636;-56
2022/08/16 09:19:41;;;;;;;11.93;3.85;;;;;;;27.22;54.05;100103.88;1681749;84;22036;-55
2022/08/16 09:22:49;;;;;;;9.08;2.80;;;;;;;27.17;53.87;100112.33;1697033;83;21198;-56
2022/08/16 09:25:58;;;;;;;14.18;3.17;;;;;;;27.08;53.71;100125.88;1687584;84;21759;-56
2022/08/16 09:29:08;;;;;;;11.50;2.92;;;;;;;26.99;53.65;100117.21;1695766;84;21741;-59
2022/08/16 09:32:17;;;;;;;8.30;3.42;;;;;;;26.91;53.53;100131.87;1663492;84;21265;-57
2022/08/16 09:35:27;;;;;;;12.13;5.62;;;;;;;26.86;53.50;100124.86;1686997;84;21238;-58
2022/08/16 09:38:39;;;;;;;9.15;3.10;;;;;;;26.82;53.47;100124.33;1695874;84;21274;-56
2022/08/16 09:41:51;;;;;;;9.65;3.10;;;;;;;26.82;53.44;100138.38;1672735;84;21762;-56
2022/08/16 09:44:57;;;;;;;9.23;3.37;;;;;;;26.71;53.33;100140.40;1700413;83;21249;-57
2022/08/16 09:48:05;;;;;;;9.08;3.20;;;;;;;26.61;53.31;100136.18;1676124;84;21184;-57
2022/08/16 09:51:16;;;;;;;6.90;3.65;;;;;;;26.50;53.28;100131.73;1684398;83;21338;-56
2022/08/16 09:54:22;;;;;;;8.53;3.17;;;;;;;26.38;53.26;100143.30;1690713;83;21710;-56
2022/08/16 09:57:30;;;;;;;11.15;3.40;;;;;;;26.31;53.26;100135.73;1695735;84;21228;-58
2022/08/16 10:00:39;;;;;;;32.83;22.65;;;;;;;26.23;53.19;100141.92;1677750;85;21857;-58
2022/08/16 10:03:48;;;;;;;7.97;4.85;;;;;;;26.13;53.21;100143.33;1685117;84;21267;-56
2022/08/16 10:06:57;;;;;;;10.90;4.60;;;;;;;26.01;53.09;100137.19;1686751;84;21624;-56
2022/08/16 10:10:04;;;;;;;8.75;3.55;;;;;;;25.86;53.02;100137.16;1686808;83;21393;-58
2022/08/16 10:13:14;;;;;;;10.03;3.37;;;;;;;25.72;53.05;100140.84;1694252;84;21207;-58
2022/08/16 10:16:19;;;;;;;10.28;3.30;;;;;;;25.59;53.17;100151.20;1689413;83;21299;-58
2022/08/16 10:19:27;;;;;;;6.75;3.30;;;;;;;25.49;53.20;100138.56;1701150;84;21234;-58
2022/08/16 10:22:36;;;;;;;9.28;3.40;;;;;;;25.44;53.27;100150.62;1698050;82;21232;-57
2022/08/16 10:25:47;;;;;;;9.25;3.40;;;;;;;25.38;53.24;100152.29;1696197;83;21244;-58
2022/08/16 10:28:56;;;;;;;8.53;3.55;;;;;;;25.33;53.27;100153.64;1674972;85;21223;-58
2022/08/16 10:32:03;;;;;;;13.72;3.50;;;;;;;25.30;53.29;100155.05;1691165;84;21254;-57
2022/08/16 10:35:10;;;;;;;12.15;3.40;;;;;;;25.26;53.26;100154.49;1700926;82;21749;-58
2022/08/16 10:38:16;;;;;;;11.55;3.42;;;;;;;25.19;53.24;100151.10;1679764;84;21201;-58
2022/08/16 10:41:26;;;;;;;11.53;3.83;;;;;;;25.17;53.18;100156.13;1673493;83;21760;-57
2022/08/16 10:44:32;;;;;;;9.00;4.10;;;;;;;25.17;53.23;100149.13;1677929;83;21287;-58
2022/08/16 10:47:53;;;;;;;7.37;3.50;;;;;;;25.20;53.27;100138.80;1678604;85;21240;-58
2022/08/16 10:51:04;;;;;;;6.62;3.30;;;;;;;25.24;53.27;100142.16;1694284;84;21305;-57
2022/08/16 10:54:19;;;;;;;11.55;3.72;;;;;;;25.20;53.20;100146.62;1709122;84;21238;-59
2022/08/16 10:57:33;;;;;;;11.85;4.03;;;;;;;25.15;53.15;100147.18;1709131;84;21220;-58
2022/08/16 11:00:42;;;;;;;6.85;4.05;;;;;;;25.11;53.16;100152.49;1739339;82;21719;-57
2022/08/16 11:03:53;;;;;;;13.08;3.65;;;;;;;25.03;53.10;100161.43;1714998;83;21706;-58
2022/08/16 11:07:03;;;;;;;10.90;4.10;;;;;;;24.97;53.13;100162.54;1712218;82;22011;-59
2022/08/16 11:10:11;;;;;;;11.12;3.98;;;;;;;24.91;53.14;100171.47;1706201;83;21210;-57
2022/08/16 11:13:27;;;;;;;7.95;3.50;;;;;;;24.88;53.19;100174.81;1673848;82;21720;-57
2022/08/16 11:16:37;;;;;;;10.40;3.72;;;;;;;24.86;53.21;100167.24;1735046;82;21205;-58
2022/08/16 11:19:43;;;;;;;14.00;3.75;;;;;;;24.84;53.28;100180.70;1705670;83;21593;-58
2022/08/16 11:22:52;;;;;;;14.03;3.10;;;;;;;24.89;53.28;100182.09;1701419;84;21179;-58
2022/08/16 11:26:00;;;;;;;8.00;3.80;;;;;;;24.90;53.29;100178.20;1719843;83;21337;-58
2022/08/16 11:29:10;;;;;;;14.35;4.87;;;;;;;24.97;53.31;100180.16;1719887;83;21230;-57
2022/08/16 11:32:17;;;;;;;8.30;3.98;;;;;;;25.01;53.25;100177.11;1714369;82;21279;-58
2022/08/16 11:35:28;;;;;;;13.25;3.50;;;;;;;25.02;53.16;100170.97;1701703;82;21847;-57
2022/08/16 11:38:39;;;;;;;7.12;3.58;;;;;;;25.01;53.15;100170.11;1700825;83;21216;-58
2022/08/16 11:41:48;;;;;;;6.70;3.85;;;;;;;24.97;53.05;100175.14;1724596;81;21223;-59
2022/08/16 11:44:56;;;;;;;14.60;3.62;;;;;;;24.91;53.08;100170.06;1702739;83;21248;-58
2022/08/16 11:48:03;;;;;;;13.83;4.20;;;;;;;24.87;53.14;100168.09;1712647;83;21756;-58
2022/08/16 11:51:10;;;;;;;9.18;4.17;;;;;;;24.85;53.20;100162.77;1720908;82;21258;-59
2022/08/16 11:54:19;;;;;;;11.40;3.95;;;;;;;24.85;53.26;100164.72;1726207;81;21195;-58
2022/08/16 11:57:26;;;;;;;9.50;3.98;;;;;;;24.84;53.26;100171.45;1768269;78;21720;-57
2022/08/16 12:00:33;;;;;;;11.18;3.80;;;;;;;24.88;53.37;100175.37;1774972;80;21536;-58
2022/08/16 12:03:39;;;;;;;5.78;3.60;;;;;;;24.83;53.27;100174.80;1771021;81;21551;-58
2022/08/16 12:06:46;;;;;;;12.78;4.22;;;;;;;24.78;53.33;100169.16;1772198;80;21194;-61
2022/08/16 12:09:53;;;;;;;12.03;3.98;;;;;;;24.75;53.35;100171.12;1774316;81;21277;-57
2022/08/16 12:13:01;;;;;;;11.03;4.08;;;;;;;24.70;53.36;100172.52;1774872;81;21275;-58
2022/08/16 12:16:09;;;;;;;12.68;4.08;;;;;;;24.65;53.41;100178.06;1774403;81;21256;-58
2022/08/16 12:19:18;;;;;;;9.55;4.30;;;;;;;24.63;53.51;100174.68;1773910;81;21240;-58
2022/08/16 12:22:24;;;;;;;9.98;4.37;;;;;;;24.60;53.46;100178.58;1774382;81;21793;-58
2022/08/16 12:25:34;;;;;;;14.87;4.30;;;;;;;24.56;53.50;100178.27;1774599;81;21790;-58
2022/08/16 12:28:40;;;;;;;19.00;5.15;;;;;;;24.55;53.55;100176.59;1768647;81;21192;-57
2022/08/16 12:31:48;;;;;;;14.47;4.30;;;;;;;24.51;53.62;100169.88;1749872;81;21821;-58
2022/08/16 12:34:57;;;;;;;15.72;5.08;;;;;;;24.49;53.65;100173.49;1752119;81;21716;-59
2022/08/16 12:38:05;;;;;;;12.00;5.00;;;;;;;24.46;53.70;100182.44;1751229;81;21205;-58
2022/08/16 12:41:12;;;;;;;15.78;4.80;;;;;;;24.47;53.80;100173.45;1749878;81;21203;-58
2022/08/16 12:44:21;;;;;;;12.10;4.40;;;;;;;24.45;53.78;100176.53;1753814;81;21204;-58
2022/08/16 12:50:54;;;;;;;11.53;4.12;;;;;;;24.48;53.93;100177.39;1738451;81;21233;-58
2022/08/16 12:54:03;;;;;;;19.05;6.45;;;;;;;24.52;54.03;100172.09;1728056;83;21193;-58
2022/08/16 12:57:10;;;;;;;11.43;4.97;;;;;;;24.57;54.08;100174.38;1727991;82;21248;-59
2022/08/16 13:00:21;;;;;;;11.78;4.87;;;;;;;24.62;54.10;100170.21;1744913;81;21233;-59
2022/08/16 13:03:28;;;;;;;11.73;4.80;;;;;;;24.68;54.12;100169.14;1783142;80;21288;-58
2022/08/16 13:06:36;;;;;;;15.95;5.80;;;;;;;24.73;54.14;100166.92;1781938;80;21200;-60
2022/08/16 13:09:57;;;;;;;13.62;6.35;;;;;;;24.76;54.17;100163.02;1778798;80;21353;-57
2022/08/16 13:13:04;;;;;;;16.15;5.03;;;;;;;24.80;54.20;100157.72;1747298;81;21686;-58
2022/08/16 13:16:12;;;;;;;10.55;4.70;;;;;;;24.84;54.21;100165.30;1744932;82;21625;-59
2022/08/16 13:19:21;;;;;;;9.73;4.65;;;;;;;24.90;54.32;100157.19;1741973;81;21191;-58
2022/08/16 13:22:28;;;;;;;9.65;4.55;;;;;;;24.99;54.36;100160.28;1746320;82;21725;-57
2022/08/16 13:25:37;;;;;;;12.10;5.15;;;;;;;25.08;54.31;100154.45;1762408;80;21325;-55
2022/08/16 13:28:45;;;;;;;7.78;4.08;;;;;;;25.14;54.23;100145.48;1751254;82;21197;-56
2022/08/16 13:31:51;;;;;;;11.12;5.37;;;;;;;25.17;54.17;100149.13;1742673;81;21533;-57
2022/08/16 13:35:03;;;;;;;10.03;5.42;;;;;;;25.21;54.22;100147.47;1734514;81;21226;-57
2022/08/16 13:38:22;;;;;;;13.18;5.05;;;;;;;25.24;54.27;100151.12;1748567;80;21222;-57
2022/08/16 13:41:30;;;;;;;11.73;4.72;;;;;;;25.25;54.26;100155.59;1745455;82;21708;-57
2022/08/16 13:44:36;;;;;;;9.50;5.40;;;;;;;25.24;54.27;100153.38;1729506;81;21231;-57
2022/08/16 13:47:43;;;;;;;14.03;5.47;;;;;;;25.23;54.24;100154.47;1744500;80;21489;-58
2022/08/16 13:50:52;;;;;;;12.00;5.50;;;;;;;25.19;54.20;100153.91;1714842;82;21229;-60
2022/08/16 13:54:07;;;;;;;9.48;4.80;;;;;;;25.19;54.27;100151.10;1698067;82;21269;-57
2022/08/16 13:57:14;;;;;;;9.35;5.17;;;;;;;25.18;54.30;100145.23;1744250;81;21208;-57
2022/08/16 14:00:23;;;;;;;12.45;5.67;;;;;;;25.17;54.30;100151.38;1744653;80;21235;-57
2022/08/16 14:03:33;;;;;;;13.98;6.17;;;;;;;25.11;54.41;100149.69;1743846;82;21479;-58
2022/08/16 14:06:42;;;;;;;13.95;5.62;;;;;;;25.12;54.55;100150.54;1743333;81;21688;-59
2022/08/16 14:09:50;;;;;;;11.78;5.92;;;;;;;25.13;54.62;100152.21;1755724;81;21231;-56
2022/08/16 14:12:58;;;;;;;18.20;6.10;;;;;;;25.10;54.66;100141.56;1756675;81;21799;-57
2022/08/16 14:16:04;;;;;;;15.65;5.50;;;;;;;25.10;54.80;100142.96;1756524;81;21219;-59
2022/08/16 14:19:17;;;;;;;10.15;5.28;;;;;;;25.08;54.85;100145.46;1756828;81;21333;-59
2022/08/16 14:22:33;;;;;;;12.23;4.83;;;;;;;25.08;54.86;100142.66;1756718;81;21266;-58
2022/08/16 14:25:41;;;;;;;10.75;4.53;;;;;;;25.10;54.95;100152.77;1755930;81;21797;-59
2022/08/16 14:28:51;;;;;;;9.83;5.03;;;;;;;25.07;54.99;100151.92;1745674;81;21207;-58
2022/08/16 14:32:03;;;;;;;11.95;4.58;;;;;;;25.03;54.97;100164.23;1744614;82;21776;-61
2022/08/16 14:35:14;;;;;;;14.50;4.72;;;;;;;24.99;54.98;100167.28;1744744;80;21223;-60
2022/08/16 14:38:21;;;;;;;10.80;4.67;;;;;;;24.93;55.02;100162.23;1746416;81;21195;-56